sensor_id;sensor_type;location;lat;lon;timestamp;temperature;humidity
41481;DHT22;27217;51.220;5.308;2022-08-19T00:01:50;20.10;99.90
41481;DHT22;27217;51.220;5.308;2022-08-19T00:04:19;20.10;99.90
41481;DHT22;27217;51.220;5.308;2022-08-19T00:06:46;20.10;99.90
41481;DHT22;27217;51.220;5.308;2022-08-19T00:09:14;20.00;99.90
41481;DHT22;27217;51.220;5.308;2022-08-19T00:11:41;20.10;99.90
41481;DHT22;27217;51.220;5.308;2022-08-19T00:14:08;20.00;99.90
41481;DHT22;27217;51.220;5.308;2022-08-19T00:16:37;20.00;99.90
41481;DHT22;27217;51.220;5.308;2022-08-19T00:19:03;20.00;99.90
41481;DHT22;27217;51.220;5.308;2022-08-19T00:21:29;20.00;99.90
41481;DHT22;27217;51.220;5.308;2022-08-19T00:23:57;19.90;99.90
41481;DHT22;27217;51.220;5.308;2022-08-19T00:26:24;19.90;99.90
41481;DHT22;27217;51.220;5.308;2022-08-19T00:28:50;19.90;99.90
41481;DHT22;27217;51.220;5.308;2022-08-19T00:31:16;19.90;99.90
41481;DHT22;27217;51.220;5.308;2022-08-19T00:33:43;19.70;99.90
41481;DHT22;27217;51.220;5.308;2022-08-19T00:36:09;19.70;99.90
41481;DHT22;27217;51.220;5.308;2022-08-19T00:38:38;19.60;99.90
41481;DHT22;27217;51.220;5.308;2022-08-19T00:41:09;19.70;99.90
41481;DHT22;27217;51.220;5.308;2022-08-19T00:43:36;19.50;99.90
41481;DHT22;27217;51.220;5.308;2022-08-19T00:46:04;19.80;99.90
41481;DHT22;27217;51.220;5.308;2022-08-19T00:48:31;19.70;99.90
41481;DHT22;27217;51.220;5.308;2022-08-19T00:50:57;19.80;99.90
41481;DHT22;27217;51.220;5.308;2022-08-19T00:53:26;19.60;99.90
41481;DHT22;27217;51.220;5.308;2022-08-19T00:55:54;19.60;99.90
41481;DHT22;27217;51.220;5.308;2022-08-19T00:58:23;19.40;99.90
41481;DHT22;27217;51.220;5.308;2022-08-19T01:00:52;19.20;99.90
41481;DHT22;27217;51.220;5.308;2022-08-19T01:03:20;19.00;99.90
41481;DHT22;27217;51.220;5.308;2022-08-19T01:05:47;19.10;99.90
41481;DHT22;27217;51.220;5.308;2022-08-19T01:08:15;19.00;99.90
41481;DHT22;27217;51.220;5.308;2022-08-19T01:10:46;19.00;99.90
41481;DHT22;27217;51.220;5.308;2022-08-19T01:13:22;18.90;99.90
41481;DHT22;27217;51.220;5.308;2022-08-19T01:16:02;18.70;99.90
41481;DHT22;27217;51.220;5.308;2022-08-19T01:18:29;18.70;99.90
41481;DHT22;27217;51.220;5.308;2022-08-19T01:20:58;18.70;99.90
41481;DHT22;27217;51.220;5.308;2022-08-19T01:23:25;18.60;99.90
41481;DHT22;27217;51.220;5.308;2022-08-19T01:26:11;18.70;99.90
41481;DHT22;27217;51.220;5.308;2022-08-19T01:28:37;18.80;99.90
41481;DHT22;27217;51.220;5.308;2022-08-19T01:31:04;19.20;99.90
41481;DHT22;27217;51.220;5.308;2022-08-19T01:33:31;19.30;99.90
41481;DHT22;27217;51.220;5.308;2022-08-19T01:36:08;19.50;99.90
41481;DHT22;27217;51.220;5.308;2022-08-19T01:38:37;19.50;99.90
41481;DHT22;27217;51.220;5.308;2022-08-19T01:41:04;19.50;99.90
41481;DHT22;27217;51.220;5.308;2022-08-19T01:43:29;19.30;99.90
41481;DHT22;27217;51.220;5.308;2022-08-19T01:45:56;19.10;99.90
41481;DHT22;27217;51.220;5.308;2022-08-19T01:48:22;18.80;99.90
41481;DHT22;27217;51.220;5.308;2022-08-19T01:50:49;18.70;99.90
41481;DHT22;27217;51.220;5.308;2022-08-19T01:53:15;18.50;99.90
41481;DHT22;27217;51.220;5.308;2022-08-19T01:55:42;18.60;99.90
41481;DHT22;27217;51.220;5.308;2022-08-19T01:58:15;18.50;99.90
41481;DHT22;27217;51.220;5.308;2022-08-19T02:00:45;18.70;99.90
41481;DHT22;27217;51.220;5.308;2022-08-19T02:03:12;18.80;99.90
41481;DHT22;27217;51.220;5.308;2022-08-19T02:05:41;18.60;99.90
41481;DHT22;27217;51.220;5.308;2022-08-19T02:08:07;18.80;99.90
41481;DHT22;27217;51.220;5.308;2022-08-19T02:10:37;19.10;99.90
41481;DHT22;27217;51.220;5.308;2022-08-19T02:13:03;19.00;99.90
41481;DHT22;27217;51.220;5.308;2022-08-19T02:15:30;19.00;99.90
41481;DHT22;27217;51.220;5.308;2022-08-19T02:17:55;18.60;99.90
41481;DHT22;27217;51.220;5.308;2022-08-19T02:20:21;18.40;99.90
41481;DHT22;27217;51.220;5.308;2022-08-19T02:22:47;18.50;99.90
41481;DHT22;27217;51.220;5.308;2022-08-19T02:25:14;18.40;99.90
41481;DHT22;27217;51.220;5.308;2022-08-19T02:27:41;18.80;99.90
41481;DHT22;27217;51.220;5.308;2022-08-19T02:30:11;18.80;99.90
41481;DHT22;27217;51.220;5.308;2022-08-19T02:32:38;18.90;99.90
41481;DHT22;27217;51.220;5.308;2022-08-19T02:35:04;19.00;99.90
41481;DHT22;27217;51.220;5.308;2022-08-19T02:37:30;18.70;99.90
41481;DHT22;27217;51.220;5.308;2022-08-19T02:40:15;18.80;99.90
41481;DHT22;27217;51.220;5.308;2022-08-19T02:42:43;18.60;99.90
41481;DHT22;27217;51.220;5.308;2022-08-19T02:45:09;18.50;99.90
41481;DHT22;27217;51.220;5.308;2022-08-19T02:47:36;18.60;99.90
41481;DHT22;27217;51.220;5.308;2022-08-19T02:50:03;18.50;99.90
41481;DHT22;27217;51.220;5.308;2022-08-19T02:52:31;18.40;99.90
41481;DHT22;27217;51.220;5.308;2022-08-19T02:54:57;18.30;99.90
41481;DHT22;27217;51.220;5.308;2022-08-19T02:57:23;18.50;99.90
41481;DHT22;27217;51.220;5.308;2022-08-19T02:59:50;18.20;99.90
41481;DHT22;27217;51.220;5.308;2022-08-19T03:02:15;18.40;99.90
41481;DHT22;27217;51.220;5.308;2022-08-19T03:04:42;18.50;99.90
41481;DHT22;27217;51.220;5.308;2022-08-19T03:07:08;18.50;99.90
41481;DHT22;27217;51.220;5.308;2022-08-19T03:09:36;18.50;99.90
41481;DHT22;27217;51.220;5.308;2022-08-19T03:12:04;18.40;99.90
41481;DHT22;27217;51.220;5.308;2022-08-19T03:14:31;18.50;99.90
41481;DHT22;27217;51.220;5.308;2022-08-19T03:17:01;18.40;99.90
41481;DHT22;27217;51.220;5.308;2022-08-19T03:19:27;18.30;99.90
41481;DHT22;27217;51.220;5.308;2022-08-19T03:21:57;18.40;99.90
41481;DHT22;27217;51.220;5.308;2022-08-19T03:24:24;18.10;99.90
41481;DHT22;27217;51.220;5.308;2022-08-19T03:26:52;18.30;99.90
41481;DHT22;27217;51.220;5.308;2022-08-19T03:29:20;18.40;99.90
41481;DHT22;27217;51.220;5.308;2022-08-19T03:31:46;18.30;99.90
41481;DHT22;27217;51.220;5.308;2022-08-19T03:34:16;18.20;99.90
41481;DHT22;27217;51.220;5.308;2022-08-19T03:36:46;18.10;99.90
41481;DHT22;27217;51.220;5.308;2022-08-19T03:39:11;18.30;99.90
41481;DHT22;27217;51.220;5.308;2022-08-19T03:41:41;18.40;99.90
41481;DHT22;27217;51.220;5.308;2022-08-19T03:44:07;18.40;99.90
41481;DHT22;27217;51.220;5.308;2022-08-19T03:46:35;17.90;99.90
41481;DHT22;27217;51.220;5.308;2022-08-19T03:49:03;17.60;99.90
41481;DHT22;27217;51.220;5.308;2022-08-19T03:51:35;17.70;99.90
41481;DHT22;27217;51.220;5.308;2022-08-19T03:54:05;17.70;99.90
41481;DHT22;27217;51.220;5.308;2022-08-19T03:56:38;17.60;99.90
41481;DHT22;27217;51.220;5.308;2022-08-19T03:59:06;18.00;99.90
41481;DHT22;27217;51.220;5.308;2022-08-19T04:01:32;18.10;99.90
41481;DHT22;27217;51.220;5.308;2022-08-19T04:03:59;17.70;99.90
41481;DHT22;27217;51.220;5.308;2022-08-19T04:06:29;17.70;99.90
41481;DHT22;27217;51.220;5.308;2022-08-19T04:08:57;17.60;99.90
41481;DHT22;27217;51.220;5.308;2022-08-19T04:11:26;17.60;99.90
41481;DHT22;27217;51.220;5.308;2022-08-19T04:13:53;17.70;99.90
41481;DHT22;27217;51.220;5.308;2022-08-19T04:16:21;17.80;99.90
41481;DHT22;27217;51.220;5.308;2022-08-19T04:18:48;18.10;99.90
41481;DHT22;27217;51.220;5.308;2022-08-19T04:21:20;18.00;99.90
41481;DHT22;27217;51.220;5.308;2022-08-19T04:23:47;18.20;99.90
41481;DHT22;27217;51.220;5.308;2022-08-19T04:26:14;18.20;99.90
41481;DHT22;27217;51.220;5.308;2022-08-19T04:28:41;17.90;99.90
41481;DHT22;27217;51.220;5.308;2022-08-19T04:31:14;17.90;99.90
41481;DHT22;27217;51.220;5.308;2022-08-19T04:33:40;17.90;99.90
41481;DHT22;27217;51.220;5.308;2022-08-19T04:36:07;18.00;99.90
41481;DHT22;27217;51.220;5.308;2022-08-19T04:38:33;18.00;99.90
41481;DHT22;27217;51.220;5.308;2022-08-19T04:40:59;17.70;99.90
41481;DHT22;27217;51.220;5.308;2022-08-19T04:43:44;17.80;99.90
41481;DHT22;27217;51.220;5.308;2022-08-19T04:46:13;17.70;99.90
41481;DHT22;27217;51.220;5.308;2022-08-19T04:48:40;17.60;99.90
41481;DHT22;27217;51.220;5.308;2022-08-19T04:51:08;17.60;99.90
41481;DHT22;27217;51.220;5.308;2022-08-19T04:53:36;17.60;99.90
41481;DHT22;27217;51.220;5.308;2022-08-19T04:56:13;17.20;99.90
41481;DHT22;27217;51.220;5.308;2022-08-19T04:58:40;17.00;99.90
41481;DHT22;27217;51.220;5.308;2022-08-19T05:01:08;17.10;99.90
41481;DHT22;27217;51.220;5.308;2022-08-19T05:03:35;17.10;99.90
41481;DHT22;27217;51.220;5.308;2022-08-19T05:06:10;17.00;99.90
41481;DHT22;27217;51.220;5.308;2022-08-19T05:08:38;17.00;99.90
41481;DHT22;27217;51.220;5.308;2022-08-19T05:11:25;17.10;99.90
41481;DHT22;27217;51.220;5.308;2022-08-19T05:13:51;17.20;99.90
41481;DHT22;27217;51.220;5.308;2022-08-19T05:16:19;17.10;99.90
41481;DHT22;27217;51.220;5.308;2022-08-19T05:18:45;17.30;99.90
41481;DHT22;27217;51.220;5.308;2022-08-19T05:21:31;17.30;99.90
41481;DHT22;27217;51.220;5.308;2022-08-19T05:24:16;17.50;99.90
41481;DHT22;27217;51.220;5.308;2022-08-19T05:26:45;17.50;99.90
41481;DHT22;27217;51.220;5.308;2022-08-19T05:29:13;17.30;99.90
41481;DHT22;27217;51.220;5.308;2022-08-19T05:31:39;17.20;99.90
41481;DHT22;27217;51.220;5.308;2022-08-19T05:34:06;17.20;99.90
41481;DHT22;27217;51.220;5.308;2022-08-19T05:36:40;17.40;99.90
41481;DHT22;27217;51.220;5.308;2022-08-19T05:39:08;17.30;99.90
41481;DHT22;27217;51.220;5.308;2022-08-19T05:41:34;17.50;99.90
41481;DHT22;27217;51.220;5.308;2022-08-19T05:44:04;17.40;99.90
41481;DHT22;27217;51.220;5.308;2022-08-19T05:46:32;17.40;99.90
41481;DHT22;27217;51.220;5.308;2022-08-19T05:48:58;17.60;99.90
41481;DHT22;27217;51.220;5.308;2022-08-19T05:51:25;17.70;99.90
41481;DHT22;27217;51.220;5.308;2022-08-19T05:53:52;17.80;99.90
41481;DHT22;27217;51.220;5.308;2022-08-19T05:56:18;17.70;99.90
41481;DHT22;27217;51.220;5.308;2022-08-19T05:58:45;17.60;99.90
41481;DHT22;27217;51.220;5.308;2022-08-19T06:01:17;17.80;99.90
41481;DHT22;27217;51.220;5.308;2022-08-19T06:03:43;17.90;99.90
41481;DHT22;27217;51.220;5.308;2022-08-19T06:06:12;17.80;99.90
41481;DHT22;27217;51.220;5.308;2022-08-19T06:08:39;17.60;99.90
41481;DHT22;27217;51.220;5.308;2022-08-19T06:11:23;17.50;99.90
41481;DHT22;27217;51.220;5.308;2022-08-19T06:13:52;17.40;99.90
41481;DHT22;27217;51.220;5.308;2022-08-19T06:16:20;17.50;99.90
41481;DHT22;27217;51.220;5.308;2022-08-19T06:18:50;17.70;99.90
41481;DHT22;27217;51.220;5.308;2022-08-19T06:21:21;17.70;99.90
41481;DHT22;27217;51.220;5.308;2022-08-19T06:23:47;17.70;99.90
41481;DHT22;27217;51.220;5.308;2022-08-19T06:26:14;17.70;99.90
41481;DHT22;27217;51.220;5.308;2022-08-19T06:28:41;17.70;99.90
41481;DHT22;27217;51.220;5.308;2022-08-19T06:31:10;17.70;99.90
41481;DHT22;27217;51.220;5.308;2022-08-19T06:33:36;18.10;99.90
41481;DHT22;27217;51.220;5.308;2022-08-19T06:36:03;18.30;99.90
41481;DHT22;27217;51.220;5.308;2022-08-19T06:38:29;18.60;99.90
41481;DHT22;27217;51.220;5.308;2022-08-19T06:41:03;18.60;99.90
41481;DHT22;27217;51.220;5.308;2022-08-19T06:43:29;18.70;99.90
41481;DHT22;27217;51.220;5.308;2022-08-19T06:45:55;18.50;99.90
41481;DHT22;27217;51.220;5.308;2022-08-19T06:48:21;18.20;99.90
41481;DHT22;27217;51.220;5.308;2022-08-19T06:50:47;18.40;99.90
41481;DHT22;27217;51.220;5.308;2022-08-19T06:53:15;18.50;99.90
41481;DHT22;27217;51.220;5.308;2022-08-19T06:55:41;18.50;99.90
41481;DHT22;27217;51.220;5.308;2022-08-19T06:58:07;18.80;99.90
41481;DHT22;27217;51.220;5.308;2022-08-19T07:00:34;18.70;99.90
41481;DHT22;27217;51.220;5.308;2022-08-19T07:03:00;19.10;99.90
41481;DHT22;27217;51.220;5.308;2022-08-19T07:05:26;19.30;99.90
41481;DHT22;27217;51.220;5.308;2022-08-19T07:07:52;19.50;99.90
41481;DHT22;27217;51.220;5.308;2022-08-19T07:10:18;19.60;99.90
41481;DHT22;27217;51.220;5.308;2022-08-19T07:12:44;19.40;99.90
41481;DHT22;27217;51.220;5.308;2022-08-19T07:15:11;19.60;99.90
41481;DHT22;27217;51.220;5.308;2022-08-19T07:17:37;20.10;99.90
41481;DHT22;27217;51.220;5.308;2022-08-19T07:20:06;20.40;99.90
41481;DHT22;27217;51.220;5.308;2022-08-19T07:22:38;19.90;99.90
41481;DHT22;27217;51.220;5.308;2022-08-19T07:25:06;19.90;99.90
41481;DHT22;27217;51.220;5.308;2022-08-19T07:27:32;20.10;99.90
41481;DHT22;27217;51.220;5.308;2022-08-19T07:29:59;20.20;99.90
41481;DHT22;27217;51.220;5.308;2022-08-19T07:32:26;20.00;99.90
41481;DHT22;27217;51.220;5.308;2022-08-19T07:34:52;20.00;99.90
41481;DHT22;27217;51.220;5.308;2022-08-19T07:37:18;20.40;99.90
41481;DHT22;27217;51.220;5.308;2022-08-19T07:39:44;20.20;99.90
41481;DHT22;27217;51.220;5.308;2022-08-19T07:42:10;20.40;99.90
41481;DHT22;27217;51.220;5.308;2022-08-19T07:44:37;20.40;99.90
41481;DHT22;27217;51.220;5.308;2022-08-19T07:47:04;20.30;99.90
41481;DHT22;27217;51.220;5.308;2022-08-19T07:49:30;20.00;99.90
41481;DHT22;27217;51.220;5.308;2022-08-19T07:52:01;20.40;99.90
41481;DHT22;27217;51.220;5.308;2022-08-19T07:54:32;20.80;99.90
41481;DHT22;27217;51.220;5.308;2022-08-19T07:56:59;21.00;99.90
41481;DHT22;27217;51.220;5.308;2022-08-19T07:59:25;20.80;99.90
41481;DHT22;27217;51.220;5.308;2022-08-19T08:01:51;21.10;99.90
41481;DHT22;27217;51.220;5.308;2022-08-19T08:04:18;20.90;99.90
41481;DHT22;27217;51.220;5.308;2022-08-19T08:07:03;20.60;99.90
41481;DHT22;27217;51.220;5.308;2022-08-19T08:09:47;20.60;99.90
41481;DHT22;27217;51.220;5.308;2022-08-19T08:12:20;20.80;99.90
41481;DHT22;27217;51.220;5.308;2022-08-19T08:14:52;20.70;99.90
41481;DHT22;27217;51.220;5.308;2022-08-19T08:17:19;20.70;99.90
41481;DHT22;27217;51.220;5.308;2022-08-19T08:19:46;20.60;99.90
41481;DHT22;27217;51.220;5.308;2022-08-19T08:22:17;20.50;99.90
41481;DHT22;27217;51.220;5.308;2022-08-19T08:25:18;20.50;99.90
41481;DHT22;27217;51.220;5.308;2022-08-19T08:27:45;20.80;99.90
41481;DHT22;27217;51.220;5.308;2022-08-19T08:30:14;20.90;99.90
41481;DHT22;27217;51.220;5.308;2022-08-19T08:32:41;21.10;99.90
41481;DHT22;27217;51.220;5.308;2022-08-19T08:35:12;21.40;99.90
41481;DHT22;27217;51.220;5.308;2022-08-19T08:37:38;21.60;99.90
41481;DHT22;27217;51.220;5.308;2022-08-19T08:42:47;21.40;99.90
41481;DHT22;27217;51.220;5.308;2022-08-19T08:45:18;21.30;99.90
41481;DHT22;27217;51.220;5.308;2022-08-19T08:47:48;21.60;99.90
41481;DHT22;27217;51.220;5.308;2022-08-19T08:50:19;22.00;99.90
41481;DHT22;27217;51.220;5.308;2022-08-19T08:52:52;21.10;99.90
41481;DHT22;27217;51.220;5.308;2022-08-19T08:55:22;21.20;99.90
41481;DHT22;27217;51.220;5.308;2022-08-19T09:00:28;20.90;99.90
41481;DHT22;27217;51.220;5.308;2022-08-19T09:02:56;21.20;99.90
41481;DHT22;27217;51.220;5.308;2022-08-19T09:05:26;21.20;99.90
41481;DHT22;27217;51.220;5.308;2022-08-19T09:08:07;21.40;99.90
41481;DHT22;27217;51.220;5.308;2022-08-19T09:10:49;20.90;99.90
41481;DHT22;27217;51.220;5.308;2022-08-19T09:16:11;22.00;99.90
41481;DHT22;27217;51.220;5.308;2022-08-19T09:18:41;21.80;99.90
41481;DHT22;27217;51.220;5.308;2022-08-19T09:21:07;22.00;99.90
41481;DHT22;27217;51.220;5.308;2022-08-19T09:23:35;22.00;99.90
41481;DHT22;27217;51.220;5.308;2022-08-19T09:26:01;22.10;99.90
41481;DHT22;27217;51.220;5.308;2022-08-19T09:28:26;22.30;99.90
41481;DHT22;27217;51.220;5.308;2022-08-19T09:30:54;21.80;99.90
41481;DHT22;27217;51.220;5.308;2022-08-19T09:33:20;22.20;99.90
41481;DHT22;27217;51.220;5.308;2022-08-19T09:35:46;22.40;99.90
41481;DHT22;27217;51.220;5.308;2022-08-19T09:38:12;23.00;99.90
41481;DHT22;27217;51.220;5.308;2022-08-19T09:40:38;23.30;99.90
41481;DHT22;27217;51.220;5.308;2022-08-19T09:43:04;23.50;99.90
41481;DHT22;27217;51.220;5.308;2022-08-19T09:45:30;23.00;99.90
41481;DHT22;27217;51.220;5.308;2022-08-19T09:47:57;22.90;99.90
41481;DHT22;27217;51.220;5.308;2022-08-19T09:50:23;22.80;99.90
41481;DHT22;27217;51.220;5.308;2022-08-19T09:52:49;23.10;99.90
41481;DHT22;27217;51.220;5.308;2022-08-19T09:55:17;23.10;99.90
41481;DHT22;27217;51.220;5.308;2022-08-19T09:57:44;23.10;99.90
41481;DHT22;27217;51.220;5.308;2022-08-19T10:00:10;23.70;99.90
41481;DHT22;27217;51.220;5.308;2022-08-19T10:02:36;23.60;99.90
41481;DHT22;27217;51.220;5.308;2022-08-19T10:05:02;24.00;99.90
41481;DHT22;27217;51.220;5.308;2022-08-19T10:07:46;23.40;99.90
41481;DHT22;27217;51.220;5.308;2022-08-19T10:10:13;22.60;99.90
41481;DHT22;27217;51.220;5.308;2022-08-19T10:12:39;23.50;99.90
41481;DHT22;27217;51.220;5.308;2022-08-19T10:15:06;23.60;99.90
41481;DHT22;27217;51.220;5.308;2022-08-19T10:17:33;23.60;99.90
41481;DHT22;27217;51.220;5.308;2022-08-19T10:20:01;23.70;99.90
41481;DHT22;27217;51.220;5.308;2022-08-19T10:22:28;23.40;99.90
41481;DHT22;27217;51.220;5.308;2022-08-19T10:24:54;23.80;99.90
41481;DHT22;27217;51.220;5.308;2022-08-19T10:27:19;24.50;99.90
41481;DHT22;27217;51.220;5.308;2022-08-19T10:29:45;24.30;99.90
41481;DHT22;27217;51.220;5.308;2022-08-19T10:32:13;24.60;99.90
41481;DHT22;27217;51.220;5.308;2022-08-19T10:34:39;24.80;99.90
41481;DHT22;27217;51.220;5.308;2022-08-19T10:37:05;24.20;99.90
41481;DHT22;27217;51.220;5.308;2022-08-19T10:39:33;24.20;99.90
41481;DHT22;27217;51.220;5.308;2022-08-19T10:41:59;24.20;99.90
41481;DHT22;27217;51.220;5.308;2022-08-19T10:44:25;25.10;99.90
41481;DHT22;27217;51.220;5.308;2022-08-19T10:46:51;24.60;99.90
41481;DHT22;27217;51.220;5.308;2022-08-19T10:49:17;24.10;99.90
41481;DHT22;27217;51.220;5.308;2022-08-19T10:51:44;24.20;99.90
41481;DHT22;27217;51.220;5.308;2022-08-19T10:54:28;24.60;99.90
41481;DHT22;27217;51.220;5.308;2022-08-19T10:57:14;25.20;99.90
41481;DHT22;27217;51.220;5.308;2022-08-19T10:59:40;25.40;99.90
41481;DHT22;27217;51.220;5.308;2022-08-19T11:02:08;25.80;99.90
41481;DHT22;27217;51.220;5.308;2022-08-19T11:04:39;25.30;99.90
41481;DHT22;27217;51.220;5.308;2022-08-19T11:07:06;24.90;99.90
41481;DHT22;27217;51.220;5.308;2022-08-19T11:09:35;25.00;99.90
41481;DHT22;27217;51.220;5.308;2022-08-19T11:12:03;24.90;99.90
41481;DHT22;27217;51.220;5.308;2022-08-19T11:14:29;24.30;99.90
41481;DHT22;27217;51.220;5.308;2022-08-19T11:16:56;24.80;99.90
41481;DHT22;27217;51.220;5.308;2022-08-19T11:19:22;25.20;99.90
41481;DHT22;27217;51.220;5.308;2022-08-19T11:21:50;25.10;99.90
41481;DHT22;27217;51.220;5.308;2022-08-19T11:24:22;24.60;99.90
41481;DHT22;27217;51.220;5.308;2022-08-19T11:26:50;24.10;99.90
41481;DHT22;27217;51.220;5.308;2022-08-19T11:29:19;24.00;99.90
41481;DHT22;27217;51.220;5.308;2022-08-19T11:31:47;24.00;99.90
41481;DHT22;27217;51.220;5.308;2022-08-19T11:34:21;24.10;99.90
41481;DHT22;27217;51.220;5.308;2022-08-19T11:36:48;24.00;99.90
41481;DHT22;27217;51.220;5.308;2022-08-19T11:39:16;23.90;99.90
41481;DHT22;27217;51.220;5.308;2022-08-19T11:41:42;24.20;99.90
41481;DHT22;27217;51.220;5.308;2022-08-19T11:44:08;24.70;99.90
41481;DHT22;27217;51.220;5.308;2022-08-19T11:46:35;24.90;99.90
41481;DHT22;27217;51.220;5.308;2022-08-19T11:49:01;24.60;99.90
41481;DHT22;27217;51.220;5.308;2022-08-19T11:51:29;25.50;99.90
41481;DHT22;27217;51.220;5.308;2022-08-19T11:53:56;26.10;99.90
41481;DHT22;27217;51.220;5.308;2022-08-19T11:56:23;26.00;99.90
41481;DHT22;27217;51.220;5.308;2022-08-19T11:58:49;26.20;99.90
41481;DHT22;27217;51.220;5.308;2022-08-19T12:01:18;26.10;99.90
41481;DHT22;27217;51.220;5.308;2022-08-19T12:03:46;26.00;99.90
41481;DHT22;27217;51.220;5.308;2022-08-19T12:06:15;25.50;99.90
41481;DHT22;27217;51.220;5.308;2022-08-19T12:08:42;25.10;99.90
41481;DHT22;27217;51.220;5.308;2022-08-19T12:11:09;25.20;99.90
41481;DHT22;27217;51.220;5.308;2022-08-19T12:13:35;25.00;99.90
41481;DHT22;27217;51.220;5.308;2022-08-19T12:16:11;25.10;99.90
41481;DHT22;27217;51.220;5.308;2022-08-19T12:18:38;25.20;99.90
41481;DHT22;27217;51.220;5.308;2022-08-19T12:21:06;25.70;99.90
41481;DHT22;27217;51.220;5.308;2022-08-19T12:23:35;25.10;99.90
41481;DHT22;27217;51.220;5.308;2022-08-19T12:26:03;24.80;99.90
41481;DHT22;27217;51.220;5.308;2022-08-19T12:28:29;24.70;99.90
41481;DHT22;27217;51.220;5.308;2022-08-19T12:30:56;25.40;99.90
41481;DHT22;27217;51.220;5.308;2022-08-19T12:33:22;25.70;99.90
41481;DHT22;27217;51.220;5.308;2022-08-19T12:35:51;26.10;99.90
41481;DHT22;27217;51.220;5.308;2022-08-19T12:38:18;25.90;99.90
41481;DHT22;27217;51.220;5.308;2022-08-19T12:40:47;26.30;99.90
41481;DHT22;27217;51.220;5.308;2022-08-19T12:43:13;27.00;99.90
41481;DHT22;27217;51.220;5.308;2022-08-19T12:45:41;27.00;99.90
41481;DHT22;27217;51.220;5.308;2022-08-19T12:48:08;27.70;99.90
41481;DHT22;27217;51.220;5.308;2022-08-19T12:50:34;28.30;99.90
41481;DHT22;27217;51.220;5.308;2022-08-19T12:53:00;28.40;99.90
41481;DHT22;27217;51.220;5.308;2022-08-19T12:55:26;28.50;99.90
41481;DHT22;27217;51.220;5.308;2022-08-19T12:57:53;29.40;99.90
41481;DHT22;27217;51.220;5.308;2022-08-19T13:00:20;29.90;99.90
41481;DHT22;27217;51.220;5.308;2022-08-19T13:02:48;28.50;99.90
41481;DHT22;27217;51.220;5.308;2022-08-19T13:05:21;28.30;99.90
41481;DHT22;27217;51.220;5.308;2022-08-19T13:07:48;28.50;99.90
41481;DHT22;27217;51.220;5.308;2022-08-19T13:10:19;27.10;99.90
41481;DHT22;27217;51.220;5.308;2022-08-19T13:12:46;26.70;99.90
41481;DHT22;27217;51.220;5.308;2022-08-19T13:15:14;26.40;99.90
41481;DHT22;27217;51.220;5.308;2022-08-19T13:17:41;26.40;99.90
41481;DHT22;27217;51.220;5.308;2022-08-19T13:20:09;26.50;99.90
41481;DHT22;27217;51.220;5.308;2022-08-19T13:22:36;26.50;99.90
41481;DHT22;27217;51.220;5.308;2022-08-19T13:25:04;26.50;99.90
41481;DHT22;27217;51.220;5.308;2022-08-19T13:27:30;26.60;99.90
41481;DHT22;27217;51.220;5.308;2022-08-19T13:29:56;26.00;99.90
41481;DHT22;27217;51.220;5.308;2022-08-19T13:32:41;25.60;99.90
41481;DHT22;27217;51.220;5.308;2022-08-19T13:35:25;26.20;99.90
41481;DHT22;27217;51.220;5.308;2022-08-19T13:37:51;26.10;99.90
41481;DHT22;27217;51.220;5.308;2022-08-19T13:40:20;25.90;99.90
41481;DHT22;27217;51.220;5.308;2022-08-19T13:42:49;26.60;99.90
41481;DHT22;27217;51.220;5.308;2022-08-19T13:45:19;26.50;99.90
41481;DHT22;27217;51.220;5.308;2022-08-19T13:47:56;26.60;99.90
41481;DHT22;27217;51.220;5.308;2022-08-19T13:50:28;27.10;99.90
41481;DHT22;27217;51.220;5.308;2022-08-19T13:52:57;26.90;99.90
41481;DHT22;27217;51.220;5.308;2022-08-19T13:55:24;26.90;99.90
41481;DHT22;27217;51.220;5.308;2022-08-19T13:57:52;27.00;99.90
41481;DHT22;27217;51.220;5.308;2022-08-19T14:00:19;26.80;99.90
41481;DHT22;27217;51.220;5.308;2022-08-19T14:02:47;27.40;99.90
41481;DHT22;27217;51.220;5.308;2022-08-19T14:05:15;27.60;99.90
41481;DHT22;27217;51.220;5.308;2022-08-19T14:07:41;27.70;99.90
41481;DHT22;27217;51.220;5.308;2022-08-19T14:10:09;27.40;99.90
41481;DHT22;27217;51.220;5.308;2022-08-19T14:12:36;26.80;99.90
41481;DHT22;27217;51.220;5.308;2022-08-19T14:15:03;27.10;99.90
41481;DHT22;27217;51.220;5.308;2022-08-19T14:17:29;27.00;99.90
41481;DHT22;27217;51.220;5.308;2022-08-19T14:19:59;27.00;99.90
41481;DHT22;27217;51.220;5.308;2022-08-19T14:22:29;27.00;99.90
41481;DHT22;27217;51.220;5.308;2022-08-19T14:24:56;26.90;99.90
41481;DHT22;27217;51.220;5.308;2022-08-19T14:27:23;26.90;99.90
41481;DHT22;27217;51.220;5.308;2022-08-19T14:29:53;26.90;99.90
41481;DHT22;27217;51.220;5.308;2022-08-19T14:32:20;27.20;99.90
41481;DHT22;27217;51.220;5.308;2022-08-19T14:34:47;27.50;99.90
41481;DHT22;27217;51.220;5.308;2022-08-19T14:37:14;28.00;99.90
41481;DHT22;27217;51.220;5.308;2022-08-19T14:39:43;28.20;99.90
41481;DHT22;27217;51.220;5.308;2022-08-19T14:42:11;28.00;99.90
41481;DHT22;27217;51.220;5.308;2022-08-19T14:44:40;28.10;99.90
41481;DHT22;27217;51.220;5.308;2022-08-19T14:47:06;28.20;99.90
41481;DHT22;27217;51.220;5.308;2022-08-19T14:49:33;28.40;99.90
41481;DHT22;27217;51.220;5.308;2022-08-19T14:51:59;27.90;99.90
41481;DHT22;27217;51.220;5.308;2022-08-19T14:54:24;27.50;99.90
41481;DHT22;27217;51.220;5.308;2022-08-19T14:56:50;27.70;99.90
41481;DHT22;27217;51.220;5.308;2022-08-19T14:59:17;27.80;99.90
41481;DHT22;27217;51.220;5.308;2022-08-19T15:01:43;28.50;99.90
41481;DHT22;27217;51.220;5.308;2022-08-19T15:04:09;27.90;99.90
41481;DHT22;27217;51.220;5.308;2022-08-19T15:06:35;28.40;99.90
41481;DHT22;27217;51.220;5.308;2022-08-19T15:09:01;28.30;99.90
41481;DHT22;27217;51.220;5.308;2022-08-19T15:11:28;28.20;99.90
41481;DHT22;27217;51.220;5.308;2022-08-19T15:16:29;27.50;99.90
41481;DHT22;27217;51.220;5.308;2022-08-19T15:18:57;26.90;99.90
41481;DHT22;27217;51.220;5.308;2022-08-19T15:21:25;26.60;99.90
41481;DHT22;27217;51.220;5.308;2022-08-19T15:23:51;26.70;99.90
41481;DHT22;27217;51.220;5.308;2022-08-19T15:26:19;25.80;99.90
41481;DHT22;27217;51.220;5.308;2022-08-19T15:28:45;26.10;99.90
41481;DHT22;27217;51.220;5.308;2022-08-19T15:31:12;26.20;99.90
41481;DHT22;27217;51.220;5.308;2022-08-19T15:33:40;26.10;99.90
41481;DHT22;27217;51.220;5.308;2022-08-19T15:36:10;26.40;99.90
41481;DHT22;27217;51.220;5.308;2022-08-19T15:38:37;26.50;99.90
41481;DHT22;27217;51.220;5.308;2022-08-19T15:41:16;26.80;99.90
41481;DHT22;27217;51.220;5.308;2022-08-19T15:43:56;26.50;99.90
41481;DHT22;27217;51.220;5.308;2022-08-19T15:46:26;26.40;99.90
41481;DHT22;27217;51.220;5.308;2022-08-19T15:48:53;26.60;99.90